N1309E KCNO-KCCB
Flight info
| Callsign | N1309E |
|---|---|
| Flight time | 0h -7m |
| Altitude | 4000 |
| Route | DCT |
| Aircraft | C172/L-VGD/C |
Departure
| Time | 2026-04-28 22:34 |
|---|---|
| Airport | Chino Airport (KCNO) |
Arrival
| Time | 2026-04-28 22:27 |
|---|---|
| Airport | Upland-Cable Airport (KCCB) |
| Time | Latitude | Longitude | Altitude | Speed | Heading |
|---|---|---|---|---|---|
| 2026-04-28 22:26 | 33.97747 | -117.63644 | 635 ft | 0 kts | 313° |
| 2026-04-28 22:30 | 33.97778 | -117.63658 | 635 ft | 10 kts | 35° |
| 2026-04-28 22:30 | 33.97786 | -117.63594 | 636 ft | 7 kts | 73° |
| 2026-04-28 22:30 | 33.97791 | -117.63553 | 637 ft | 5 kts | 116° |
| 2026-04-28 22:30 | 33.97791 | -117.63510 | 638 ft | 8 kts | 49° |
| 2026-04-28 22:31 | 33.97860 | -117.63429 | 643 ft | 20 kts | 44° |
| 2026-04-28 22:31 | 33.97985 | -117.63283 | 647 ft | 28 kts | 49° |
| 2026-04-28 22:31 | 33.98086 | -117.63133 | 653 ft | 11 kts | 96° |
| 2026-04-28 22:31 | 33.98029 | -117.63068 | 653 ft | 13 kts | 169° |
| 2026-04-28 22:32 | 33.97982 | -117.63101 | 652 ft | 0 kts | 221° |
| 2026-04-28 22:33 | 33.97979 | -117.63104 | 652 ft | 8 kts | 224° |
| 2026-04-28 22:33 | 33.97816 | -117.63299 | 646 ft | 56 kts | 225° |
| 2026-04-28 22:33 | 33.97485 | -117.63688 | 796 ft | 67 kts | 225° |
| 2026-04-28 22:34 | 33.97103 | -117.64117 | 1015 ft | 72 kts | 223° |
| 2026-04-28 22:34 | 33.96870 | -117.64595 | 1249 ft | 71 kts | 274° |
| 2026-04-28 22:34 | 33.97257 | -117.64946 | 1354 ft | 89 kts | 352° |
| 2026-04-28 22:34 | 33.97886 | -117.64863 | 1573 ft | 90 kts | 1° |
| 2026-04-28 22:35 | 33.98504 | -117.64783 | 1829 ft | 88 kts | 2° |
| 2026-04-28 22:35 | 33.99112 | -117.64668 | 2118 ft | 86 kts | 5° |
| 2026-04-28 22:35 | 33.99725 | -117.64541 | 2285 ft | 95 kts | 359° |
| 2026-04-28 22:35 | 34.00333 | -117.64418 | 2566 ft | 84 kts | 359° |
| 2026-04-28 22:36 | 34.00975 | -117.64305 | 2784 ft | 89 kts | 4° |
| 2026-04-28 22:36 | 34.01578 | -117.64163 | 2665 ft | 91 kts | 3° |
| 2026-04-28 22:36 | 34.02155 | -117.64041 | 2642 ft | 84 kts | 3° |
| 2026-04-28 22:36 | 34.02762 | -117.63997 | 2594 ft | 91 kts | 357° |
| 2026-04-28 22:37 | 34.03375 | -117.63936 | 2611 ft | 88 kts | 356° |
| 2026-04-28 22:37 | 34.04006 | -117.63943 | 2611 ft | 90 kts | 353° |
| 2026-04-28 22:37 | 34.04605 | -117.64084 | 2581 ft | 85 kts | 336° |
| 2026-04-28 22:37 | 34.05183 | -117.64219 | 2630 ft | 88 kts | 345° |
| 2026-04-28 22:38 | 34.05784 | -117.64354 | 2643 ft | 88 kts | 336° |
| 2026-04-28 22:38 | 34.06372 | -117.64661 | 2572 ft | 97 kts | 328° |
| 2026-04-28 22:38 | 34.06944 | -117.65008 | 2613 ft | 82 kts | 330° |
| 2026-04-28 22:38 | 34.07485 | -117.65278 | 2464 ft | 92 kts | 327° |
| 2026-04-28 22:39 | 34.07908 | -117.65842 | 2371 ft | 89 kts | 300° |
| 2026-04-28 22:39 | 34.08292 | -117.66515 | 2327 ft | 105 kts | 303° |
| 2026-04-28 22:39 | 34.08763 | -117.67236 | 2256 ft | 113 kts | 308° |
| 2026-04-28 22:39 | 34.09359 | -117.67740 | 2358 ft | 103 kts | 353° |
| 2026-04-28 22:40 | 34.09964 | -117.67303 | 2352 ft | 108 kts | 59° |
| 2026-04-28 22:40 | 34.10230 | -117.66537 | 2145 ft | 98 kts | 74° |
| 2026-04-28 22:40 | 34.10648 | -117.66100 | 1938 ft | 84 kts | 346° |
| 2026-04-28 22:40 | 34.11122 | -117.66436 | 1834 ft | 78 kts | 319° |
| 2026-04-28 22:41 | 34.11478 | -117.66902 | 1742 ft | 77 kts | 296° |
| 2026-04-28 22:41 | 34.11495 | -117.67455 | 1682 ft | 64 kts | 258° |
| 2026-04-28 22:41 | 34.11392 | -117.67982 | 1524 ft | 64 kts | 252° |
| 2026-04-28 22:41 | 34.11251 | -117.68458 | 1436 ft | 51 kts | 246° |
| 2026-04-28 22:42 | 34.11123 | -117.68857 | 1436 ft | 64 kts | 249° |
| 2026-04-28 22:42 | 34.10945 | -117.69428 | 1572 ft | 77 kts | 251° |
| 2026-04-28 22:42 | 34.10622 | -117.69847 | 1846 ft | 75 kts | 188° |
| 2026-04-28 22:42 | 34.10292 | -117.69404 | 2056 ft | 81 kts | 89° |
| 2026-04-28 22:43 | 34.10642 | -117.68913 | 2179 ft | 88 kts | 19° |
| 2026-04-28 22:43 | 34.11167 | -117.68490 | 2318 ft | 94 kts | 71° |
| 2026-04-28 22:43 | 34.10983 | -117.67858 | 2480 ft | 84 kts | 160° |
| 2026-04-28 22:43 | 34.10522 | -117.68120 | 2634 ft | 81 kts | 237° |
| 2026-04-28 22:44 | 34.10248 | -117.68768 | 2580 ft | 85 kts | 242° |
| 2026-04-28 22:44 | 34.10019 | -117.69424 | 2503 ft | 87 kts | 247° |
| 2026-04-28 22:44 | 34.09814 | -117.70081 | 2536 ft | 82 kts | 249° |
| 2026-04-28 22:44 | 34.09612 | -117.70748 | 2480 ft | 84 kts | 249° |
| 2026-04-28 22:45 | 34.09418 | -117.71403 | 2309 ft | 82 kts | 248° |
| 2026-04-28 22:45 | 34.09197 | -117.72074 | 2214 ft | 91 kts | 248° |
| 2026-04-28 22:45 | 34.08954 | -117.72796 | 2075 ft | 94 kts | 253° |
| 2026-04-28 22:45 | 34.08904 | -117.73543 | 2048 ft | 91 kts | 269° |
| 2026-04-28 22:46 | 34.08938 | -117.74351 | 1836 ft | 96 kts | 272° |
| 2026-04-28 22:46 | 34.08986 | -117.75091 | 1707 ft | 81 kts | 272° |
| 2026-04-28 22:46 | 34.09011 | -117.75731 | 1525 ft | 74 kts | 269° |
| 2026-04-28 22:46 | 34.09016 | -117.76326 | 1359 ft | 69 kts | 271° |
| 2026-04-28 22:47 | 34.09044 | -117.76891 | 1204 ft | 73 kts | 274° |
| 2026-04-28 22:47 | 34.09085 | -117.77466 | 1059 ft | 62 kts | 276° |
| 2026-04-28 22:47 | 34.09114 | -117.77910 | 1001 ft | 43 kts | 273° |
| 2026-04-28 22:47 | 34.09129 | -117.78200 | 994 ft | 15 kts | 256° |
| 2026-04-28 22:48 | 34.09063 | -117.78252 | 994 ft | 2 kts | 152° |
| 2026-04-28 22:48 | 34.09060 | -117.78212 | 995 ft | 11 kts | 81° |
| 2026-04-28 22:48 | 34.09057 | -117.78076 | 998 ft | 22 kts | 93° |
| 2026-04-28 22:48 | 34.09042 | -117.77855 | 1002 ft | 31 kts | 89° |
| 2026-04-28 22:49 | 34.09036 | -117.77623 | 1007 ft | 25 kts | 93° |
| 2026-04-28 22:49 | 34.09032 | -117.77478 | 1012 ft | 8 kts | 60° |
| 2026-04-28 22:49 | 34.09074 | -117.77465 | 1013 ft | 6 kts | 356° |
| 2026-04-28 22:49 | 34.09101 | -117.77499 | 1013 ft | 8 kts | 275° |
| 2026-04-28 22:50 | 34.09113 | -117.77775 | 1003 ft | 58 kts | 273° |
| 2026-04-28 22:50 | 34.09136 | -117.78346 | 1151 ft | 69 kts | 273° |
| 2026-04-28 22:50 | 34.09330 | -117.78852 | 1382 ft | 71 kts | 325° |
| 2026-04-28 22:50 | 34.09864 | -117.78884 | 1574 ft | 84 kts | 19° |
| 2026-04-28 22:51 | 34.10273 | -117.78384 | 1768 ft | 93 kts | 73° |
| 2026-04-28 22:51 | 34.10202 | -117.77616 | 1963 ft | 75 kts | 115° |
| 2026-04-28 22:51 | 34.09854 | -117.77251 | 1778 ft | 71 kts | 172° |
| 2026-04-28 22:51 | 34.09399 | -117.77267 | 1421 ft | 74 kts | 230° |
| 2026-04-28 22:52 | 34.09136 | -117.77762 | 1055 ft | 70 kts | 266° |
| 2026-04-28 22:52 | 34.09130 | -117.78230 | 995 ft | 44 kts | 282° |
| 2026-04-28 22:52 | 34.09148 | -117.78687 | 1041 ft | 66 kts | 273° |
| 2026-04-28 22:52 | 34.09175 | -117.79307 | 1158 ft | 82 kts | 270° |
| 2026-04-28 22:53 | 34.09177 | -117.79959 | 1433 ft | 78 kts | 269° |
| 2026-04-28 22:53 | 34.09183 | -117.80600 | 1762 ft | 74 kts | 269° |
| 2026-04-28 22:53 | 34.09215 | -117.81250 | 1989 ft | 76 kts | 274° |
| 2026-04-28 22:53 | 34.09205 | -117.81875 | 2031 ft | 81 kts | 224° |
| 2026-04-28 22:54 | 34.08765 | -117.81523 | 2292 ft | 95 kts | 105° |
| 2026-04-28 22:54 | 34.08846 | -117.80793 | 2233 ft | 81 kts | 95° |
| 2026-04-28 22:54 | 34.09004 | -117.80065 | 1713 ft | 94 kts | 92° |
| 2026-04-28 22:54 | 34.09111 | -117.79291 | 1218 ft | 93 kts | 93° |
| 2026-04-28 22:55 | 34.09140 | -117.78556 | 1012 ft | 77 kts | 97° |
| 2026-04-28 22:55 | 34.09107 | -117.78031 | 1000 ft | 56 kts | 95° |
| 2026-04-28 22:55 | 34.09086 | -117.77445 | 1065 ft | 80 kts | 88° |
| 2026-04-28 22:55 | 34.09298 | -117.77271 | 1064 ft | 59 kts | 276° |
| 2026-04-28 22:56 | 34.09193 | -117.77721 | 1029 ft | 47 kts | 261° |
| 2026-04-28 22:56 | 34.09208 | -117.78045 | 1002 ft | 31 kts | 272° |
| 2026-04-28 22:56 | 34.09222 | -117.78331 | 997 ft | 50 kts | 272° |
| 2026-04-28 22:56 | 34.09205 | -117.78737 | 1188 ft | 46 kts | 224° |
| 2026-04-28 22:57 | 33.97747 | -117.63644 | 646 ft | 0 kts | 313° |